Time;durP1;ratioP1;P1;durP2;ratioP2;P2;SDS_P1;SDS_P2;PMS_P1;PMS_P2;Temp;Humidity;BMP_temperature;BMP_pressure;BME280_temperature;BME280_humidity;BME280_pressure;Samples;Min_cycle;Max_cycle;Signal;HPM_P1;HPM_P2
2023/05/16 00:01:01;;;;;;;65.35;44.10;;;;;;;17.47;53.45;92952.06;5018314;28;20044;-87
2023/05/16 00:03:26;;;;;;;66.22;42.42;;;;;;;17.52;53.22;92959.47;5026468;28;20067;-87
2023/05/16 00:05:52;;;;;;;58.10;42.25;;;;;;;17.46;53.55;92951.34;5019867;28;20569;-88
2023/05/16 00:08:17;;;;;;;62.47;41.80;;;;;;;17.47;53.66;92954.81;5029504;28;20060;-87
2023/05/16 00:10:44;;;;;;;61.72;42.45;;;;;;;17.44;53.53;92955.84;5036021;28;20043;-87
2023/05/16 00:13:09;;;;;;;57.88;39.35;;;;;;;17.45;53.80;92954.56;5017751;28;20059;-87
2023/05/16 00:15:37;;;;;;;65.10;40.75;;;;;;;17.51;53.63;92949.78;5064380;28;20049;-87
2023/05/16 00:18:02;;;;;;;58.35;38.47;;;;;;;17.50;53.37;92942.09;5033319;28;20048;-87
2023/05/16 00:20:28;;;;;;;62.45;38.80;;;;;;;17.50;53.50;92933.91;5034482;28;20036;-87
2023/05/16 00:22:54;;;;;;;62.00;40.08;;;;;;;17.48;53.37;92937.16;5049259;28;20033;-88
2023/05/16 00:25:22;;;;;;;56.13;38.80;;;;;;;17.49;53.42;92941.38;5035355;28;20069;-87
2023/05/16 00:27:47;;;;;;;56.45;38.13;;;;;;;17.55;53.44;92939.28;5015895;28;20038;-86
2023/05/16 00:30:12;;;;;;;56.42;38.05;;;;;;;17.50;53.46;92936.63;5014458;28;20462;-87
2023/05/16 00:32:39;;;;;;;56.20;38.60;;;;;;;17.49;53.76;92938.63;5052913;28;20041;-87
2023/05/16 00:35:05;;;;;;;55.97;37.58;;;;;;;17.49;53.17;92930.44;5018227;28;20033;-87
2023/05/16 00:37:31;;;;;;;55.13;36.75;;;;;;;17.51;53.53;92935.38;5013960;28;20037;-88
2023/05/16 00:39:56;;;;;;;52.63;36.47;;;;;;;17.48;53.28;92926.97;5018600;28;20130;-87
2023/05/16 00:42:21;;;;;;;48.63;36.13;;;;;;;17.51;53.41;92929.94;5017935;28;20408;-87
2023/05/16 00:44:47;;;;;;;51.75;35.10;;;;;;;17.46;53.60;92926.00;5018031;28;20040;-87
2023/05/16 00:47:13;;;;;;;52.40;35.72;;;;;;;17.48;53.67;92920.75;5028783;28;20521;-87
2023/05/16 00:49:40;;;;;;;55.40;35.92;;;;;;;17.46;53.39;92926.75;5034775;28;20068;-87
2023/05/16 00:52:06;;;;;;;54.00;36.30;;;;;;;17.47;53.22;92920.03;5034214;28;20530;-86
2023/05/16 00:54:31;;;;;;;56.45;37.05;;;;;;;17.42;53.75;92923.56;5010387;28;20049;-86
2023/05/16 00:56:56;;;;;;;57.53;37.10;;;;;;;17.41;53.62;92911.16;5010252;28;20037;-86
2023/05/16 00:59:25;;;;;;;48.80;34.55;;;;;;;17.46;53.72;92907.63;5018876;28;20049;-87
2023/05/16 01:01:51;;;;;;;52.83;36.58;;;;;;;17.47;53.37;92908.34;5037475;28;20142;-89
2023/05/16 01:04:18;;;;;;;51.90;36.22;;;;;;;17.47;53.26;92906.34;5035128;28;20045;-88
2023/05/16 01:06:44;;;;;;;53.33;37.10;;;;;;;17.47;53.31;92905.63;5014676;28;20037;-87
2023/05/16 01:09:10;;;;;;;50.03;35.28;;;;;;;17.42;53.82;92903.69;5011499;28;20033;-87
2023/05/16 01:11:49;;;;;;;50.17;34.90;;;;;;;17.41;53.82;92910.41;5034496;28;20049;-87
2023/05/16 01:14:22;;;;;;;52.75;34.85;;;;;;;17.43;53.18;92910.63;5034884;28;20119;-87
2023/05/16 01:17:16;;;;;;;49.83;35.08;;;;;;;17.41;53.69;92916.63;5030805;28;20033;-87
2023/05/16 01:20:10;;;;;;;51.15;34.60;;;;;;;17.43;53.80;92907.91;5035865;28;20144;-87
2023/05/16 01:22:44;;;;;;;47.70;32.97;;;;;;;17.45;53.37;92911.59;5045036;28;20061;-89
2023/05/16 01:25:10;;;;;;;49.60;35.53;;;;;;;17.42;53.56;92911.88;5048712;28;20076;-87
2023/05/16 01:27:37;;;;;;;47.38;34.05;;;;;;;17.42;53.61;92912.63;5050428;28;20075;-87
2023/05/16 01:30:16;;;;;;;48.17;34.38;;;;;;;17.39;53.33;92907.44;5012999;28;20045;-87
2023/05/16 01:32:42;;;;;;;46.03;31.58;;;;;;;17.41;53.10;92905.69;5046066;28;20052;-87
2023/05/16 01:35:08;;;;;;;44.90;30.63;;;;;;;17.45;53.60;92899.94;5005727;28;20041;-86
2023/05/16 01:37:35;;;;;;;44.53;33.53;;;;;;;17.41;53.27;92897.50;5013994;28;20463;-88
2023/05/16 01:40:08;;;;;;;50.38;34.65;;;;;;;17.45;53.27;92894.47;5018372;28;20044;-88
2023/05/16 01:42:36;;;;;;;45.38;31.15;;;;;;;17.46;53.31;92890.47;5018396;28;20041;-86
2023/05/16 01:45:25;;;;;;;43.35;31.65;;;;;;;17.48;53.35;92905.09;5018993;28;20036;-87
2023/05/16 01:47:59;;;;;;;44.75;30.75;;;;;;;17.43;53.07;92894.25;5050145;28;20041;-86
2023/05/16 01:50:25;;;;;;;43.05;30.35;;;;;;;17.44;53.27;92885.53;5016954;28;20049;-87
2023/05/16 01:52:59;;;;;;;47.75;32.17;;;;;;;17.44;53.40;92892.97;5028887;28;20515;-87
2023/05/16 01:55:47;;;;;;;47.67;32.03;;;;;;;17.44;53.33;92893.72;5033968;28;20076;-87
2023/05/16 01:58:16;;;;;;;45.72;30.92;;;;;;;17.42;53.14;92893.50;5051485;28;20056;-86
2023/05/16 02:00:43;;;;;;;40.67;28.58;;;;;;;17.45;53.47;92900.66;5033031;28;20047;-87
2023/05/16 02:03:09;;;;;;;44.95;30.27;;;;;;;17.46;53.06;92898.69;5032965;28;20063;-87
2023/05/16 02:05:34;;;;;;;41.25;29.08;;;;;;;17.45;53.20;92897.94;5049880;28;20048;-87
2023/05/16 02:08:00;;;;;;;41.05;28.80;;;;;;;17.50;53.20;92901.84;5028677;28;20103;-87
2023/05/16 02:10:25;;;;;;;43.70;31.02;;;;;;;17.41;53.41;92899.47;5032850;28;20044;-87
2023/05/16 02:12:52;;;;;;;44.97;29.80;;;;;;;17.38;53.26;92903.97;5034484;28;20112;-87
2023/05/16 02:15:17;;;;;;;42.55;28.95;;;;;;;17.41;53.47;92904.94;5032347;28;20048;-86
2023/05/16 02:17:43;;;;;;;42.00;28.75;;;;;;;17.44;53.21;92903.91;5050048;28;20041;-88
2023/05/16 02:20:10;;;;;;;39.40;28.30;;;;;;;17.47;53.06;92908.34;5050511;28;20041;-88
2023/05/16 02:22:36;;;;;;;46.05;28.40;;;;;;;17.43;53.12;92903.19;5010388;28;20128;-87
2023/05/16 02:25:02;;;;;;;40.40;27.60;;;;;;;17.40;53.24;92908.94;5017195;28;20044;-87
2023/05/16 02:27:27;;;;;;;40.13;28.77;;;;;;;17.40;52.96;92915.13;5033716;28;20416;-87
2023/05/16 02:29:53;;;;;;;42.65;27.92;;;;;;;17.39;53.31;92904.72;5030765;28;20069;-87
2023/05/16 02:32:20;;;;;;;40.05;28.95;;;;;;;17.39;53.36;92902.72;5016488;28;20052;-87
2023/05/16 02:34:45;;;;;;;38.10;27.00;;;;;;;17.41;53.42;92907.69;5017643;28;20037;-86
2023/05/16 02:37:10;;;;;;;36.50;26.90;;;;;;;17.38;53.19;92895.03;5027966;28;20041;-87
2023/05/16 02:39:36;;;;;;;39.28;27.15;;;;;;;17.37;53.46;92902.50;5015162;28;20049;-87
2023/05/16 02:42:02;;;;;;;36.50;26.63;;;;;;;17.39;53.16;92904.72;5018849;28;20547;-89
2023/05/16 02:44:28;;;;;;;37.42;26.38;;;;;;;17.45;53.01;92908.13;4989181;28;20062;-86
2023/05/16 02:46:53;;;;;;;40.97;27.58;;;;;;;17.41;53.42;92913.13;5010327;28;20763;-87
2023/05/16 02:49:19;;;;;;;37.60;27.05;;;;;;;17.41;53.31;92918.59;4977131;28;20042;-87
2023/05/16 02:51:45;;;;;;;38.92;26.63;;;;;;;17.39;52.97;92910.91;4979185;28;20041;-87
2023/05/16 02:54:11;;;;;;;39.20;26.77;;;;;;;17.37;53.33;92913.44;4961334;28;20034;-87
2023/05/16 02:56:36;;;;;;;36.38;25.65;;;;;;;17.45;53.35;92908.13;4977236;28;20049;-87
2023/05/16 02:59:03;;;;;;;39.20;25.55;;;;;;;17.44;53.12;92906.66;4994861;28;20038;-88
2023/05/16 03:01:28;;;;;;;40.17;25.75;;;;;;;17.42;53.41;92903.69;5009200;28;20045;-87
2023/05/16 03:03:54;;;;;;;35.58;24.55;;;;;;;17.40;53.27;92900.72;5007366;28;20790;-87
2023/05/16 03:06:20;;;;;;;37.00;25.73;;;;;;;17.41;52.99;92902.94;4987069;28;20042;-87
2023/05/16 03:08:46;;;;;;;36.25;26.73;;;;;;;17.44;53.14;92910.13;4980634;28;20040;-87
2023/05/16 03:11:13;;;;;;;36.50;24.85;;;;;;;17.41;53.29;92902.22;4996058;28;20487;-88
2023/05/16 03:13:41;;;;;;;32.15;23.20;;;;;;;17.42;53.04;92898.22;4973768;28;20046;-87
2023/05/16 03:16:07;;;;;;;34.55;24.73;;;;;;;17.37;53.31;92901.75;5019273;28;20045;-87
2023/05/16 03:18:32;;;;;;;37.22;25.23;;;;;;;17.38;53.32;92903.25;5016835;28;20078;-89
2023/05/16 03:20:58;;;;;;;36.30;25.33;;;;;;;17.37;53.40;92899.78;5027817;28;20048;-87
2023/05/16 03:23:23;;;;;;;36.38;24.10;;;;;;;17.40;53.16;92898.00;5033615;28;20060;-87
2023/05/16 03:25:49;;;;;;;29.92;23.13;;;;;;;17.40;52.83;92895.28;5032244;28;20045;-88
2023/05/16 03:28:15;;;;;;;34.13;22.90;;;;;;;17.42;53.27;92900.97;5030686;28;20059;-88
2023/05/16 03:30:41;;;;;;;33.40;21.75;;;;;;;17.50;52.71;92907.31;5061759;28;20112;-89
2023/05/16 03:33:06;;;;;;;139.65;108.65;;;;;;;17.46;52.97;92895.94;5031474;28;20147;-90
2023/05/16 03:35:32;;;;;;;121.03;94.07;;;;;;;17.49;52.70;92892.19;5064157;28;20124;-90
2023/05/16 03:37:57;;;;;;;55.53;40.28;;;;;;;17.57;52.59;92895.78;5018877;28;20037;-88
2023/05/16 03:40:23;;;;;;;42.42;30.50;;;;;;;17.53;52.66;92892.63;5030294;28;20044;-88
2023/05/16 03:42:48;;;;;;;42.30;28.95;;;;;;;17.62;52.74;92889.50;5024250;28;20049;-87
2023/05/16 03:45:14;;;;;;;35.95;25.73;;;;;;;17.66;52.83;92897.44;5015571;28;20068;-86
2023/05/16 03:47:39;;;;;;;37.10;23.85;;;;;;;17.66;52.45;92889.97;5026621;28;20048;-89
2023/05/16 03:50:06;;;;;;;41.33;26.33;;;;;;;17.64;52.46;92887.03;5015240;28;20392;-90
2023/05/16 03:52:32;;;;;;;36.20;24.27;;;;;;;17.56;52.41;92888.09;5018838;28;20041;-89
2023/05/16 03:54:58;;;;;;;48.45;29.23;;;;;;;17.55;51.59;92883.88;5011633;28;20122;-91
2023/05/16 03:57:24;;;;;;;88.10;28.73;;;;;;;17.32;51.19;92886.19;5007401;28;20109;-88
2023/05/16 03:59:49;;;;;;;106.10;36.40;;;;;;;17.30;51.37;92872.31;5032657;28;20090;-88
2023/05/16 04:02:15;;;;;;;147.88;41.80;;;;;;;17.35;51.06;92868.75;5028491;28;20076;-89
2023/05/16 04:04:40;;;;;;;111.68;36.75;;;;;;;17.34;50.75;92875.47;5014098;28;20041;-88
2023/05/16 04:07:06;;;;;;;84.10;33.40;;;;;;;17.39;51.03;92877.41;5014233;28;20041;-90
2023/05/16 04:09:31;;;;;;;99.63;38.97;;;;;;;17.36;50.98;92876.44;5015571;28;20045;-91
2023/05/16 04:12:00;;;;;;;104.22;37.63;;;;;;;17.44;50.93;92880.06;5012667;28;20063;-90
2023/05/16 04:14:26;;;;;;;99.15;38.97;;;;;;;17.39;51.36;92888.31;5031255;28;20037;-89
2023/05/16 04:16:51;;;;;;;127.90;45.28;;;;;;;17.35;51.10;92882.41;5048464;28;20033;-89
2023/05/16 04:19:17;;;;;;;97.53;41.67;;;;;;;17.42;51.86;92890.03;5022627;28;20056;-89
2023/05/16 04:21:42;;;;;;;102.00;40.55;;;;;;;17.36;51.79;92886.63;5019745;28;20041;-89
2023/05/16 04:24:08;;;;;;;143.68;48.40;;;;;;;17.32;52.59;92888.94;5026167;28;20126;-90
2023/05/16 04:26:33;;;;;;;136.32;44.50;;;;;;;17.35;52.20;92885.88;5040948;28;20075;-92
2023/05/16 04:29:00;;;;;;;124.78;44.42;;;;;;;17.40;52.28;92893.28;5015888;28;20037;-90
2023/05/16 04:31:26;;;;;;;76.38;38.58;;;;;;;17.48;52.17;92890.69;5015489;28;20044;-90
2023/05/16 04:33:53;;;;;;;102.03;33.50;;;;;;;17.40;51.69;92890.53;5031178;28;20049;-88
2023/05/16 04:36:18;;;;;;;40.83;18.45;;;;;;;17.25;50.87;92889.50;5004120;28;20492;-89
2023/05/16 04:38:45;;;;;;;90.25;41.00;;;;;;;17.21;50.93;92889.78;5026409;28;20240;-87
2023/05/16 04:41:22;;;;;;;142.55;43.20;;;;;;;17.12;50.73;92890.16;5062562;28;20033;-86
2023/05/16 04:43:48;;;;;;;72.75;28.13;;;;;;;16.98;50.70;92880.38;5046453;28;20535;-87
2023/05/16 04:46:16;;;;;;;114.32;36.05;;;;;;;17.06;50.93;92887.50;5037733;28;20135;-90
2023/05/16 04:48:42;;;;;;;142.30;44.65;;;;;;;17.04;50.91;92883.81;5017187;28;20029;-87
2023/05/16 04:51:08;;;;;;;170.25;65.13;;;;;;;17.06;50.93;92886.75;5048692;28;20116;-91
2023/05/16 04:53:33;;;;;;;186.70;72.28;;;;;;;17.14;50.91;92876.72;5045404;28;20045;-90
2023/05/16 04:55:59;;;;;;;177.00;81.07;;;;;;;17.16;51.47;92881.66;5030973;28;20041;-88
2023/05/16 04:58:25;;;;;;;293.98;137.38;;;;;;;17.19;51.17;92875.91;5047785;28;20040;-91
2023/05/16 05:00:51;;;;;;;351.95;190.93;;;;;;;17.22;51.20;92866.69;5030677;28;20041;-89
2023/05/16 05:03:17;;;;;;;254.35;131.93;;;;;;;17.23;51.33;92878.34;5029936;28;20040;-86
2023/05/16 05:05:42;;;;;;;212.73;112.65;;;;;;;17.23;51.95;92870.91;5030250;28;20040;-88
2023/05/16 05:08:09;;;;;;;280.75;147.48;;;;;;;17.23;51.65;92868.16;5031623;28;20110;-88
2023/05/16 05:10:35;;;;;;;342.48;192.70;;;;;;;17.28;51.64;92872.84;5033500;28;20037;-87
2023/05/16 05:13:00;;;;;;;262.45;143.70;;;;;;;17.28;51.30;92870.09;5037421;28;20049;-88
2023/05/16 05:15:26;;;;;;;284.27;156.73;;;;;;;17.31;51.59;92868.34;5041372;28;20048;-88
2023/05/16 05:17:51;;;;;;;314.02;162.13;;;;;;;17.29;51.84;92868.09;5015246;28;20044;-90
2023/05/16 05:20:17;;;;;;;305.58;157.55;;;;;;;17.34;51.62;92870.00;5014762;28;20048;-90
2023/05/16 05:22:42;;;;;;;309.67;158.43;;;;;;;17.40;51.44;92865.22;5013437;28;20041;-88
2023/05/16 05:25:09;;;;;;;296.60;154.77;;;;;;;17.42;51.61;92868.91;5025931;28;20045;-92
2023/05/16 05:27:35;;;;;;;309.17;168.88;;;;;;;17.41;51.67;92867.44;5016228;28;20029;-89
2023/05/16 05:30:02;;;;;;;291.42;158.63;;;;;;;17.50;51.74;92852.66;5047463;28;20044;-93
2023/05/16 05:32:28;;;;;;;331.73;185.52;;;;;;;17.51;51.44;92845.22;5015963;28;20037;-89
2023/05/16 05:34:53;;;;;;;306.27;174.48;;;;;;;17.52;51.64;92849.41;5015639;28;20041;-91
2023/05/16 05:37:19;;;;;;;299.27;173.88;;;;;;;17.52;51.97;92844.69;5030544;28;20892;-91
2023/05/16 05:39:44;;;;;;;296.63;172.55;;;;;;;17.48;51.71;92845.00;5017093;28;20041;-91
2023/05/16 05:42:11;;;;;;;355.20;179.48;;;;;;;17.55;52.03;92854.56;5010899;28;20042;-90
2023/05/16 05:44:36;;;;;;;376.38;191.90;;;;;;;17.65;51.67;92863.16;5032609;28;20055;-88
2023/05/16 05:47:02;;;;;;;328.50;174.50;;;;;;;17.53;51.67;92862.56;5041961;28;20049;-90
2023/05/16 05:49:28;;;;;;;355.85;194.90;;;;;;;17.60;51.38;92861.94;5011531;28;20108;-87
2023/05/16 05:51:54;;;;;;;323.67;184.73;;;;;;;17.58;51.69;92871.91;5031497;28;20045;-92
2023/05/16 05:54:20;;;;;;;481.38;229.10;;;;;;;17.58;51.77;92855.53;5023752;28;20045;-89
2023/05/16 05:56:45;;;;;;;502.13;230.85;;;;;;;17.60;51.84;92853.75;5004244;28;20037;-88
2023/05/16 05:59:11;;;;;;;489.92;281.25;;;;;;;17.73;51.61;92853.84;5009336;28;20048;-90
2023/05/16 06:01:37;;;;;;;471.02;275.25;;;;;;;17.74;51.95;92846.41;5028315;28;20045;-90
2023/05/16 06:04:02;;;;;;;441.88;264.38;;;;;;;17.79;52.00;92859.22;5033055;28;20048;-89
2023/05/16 06:06:28;;;;;;;404.13;238.43;;;;;;;17.85;52.07;92859.16;5014230;28;20510;-89
2023/05/16 06:08:54;;;;;;;398.90;235.98;;;;;;;17.77;52.09;92864.47;5019454;28;20144;-89
2023/05/16 06:11:20;;;;;;;355.77;200.88;;;;;;;17.75;51.97;92867.72;5021317;28;20061;-89
2023/05/16 06:13:45;;;;;;;356.33;205.48;;;;;;;17.81;52.38;92871.13;5017323;28;20037;-88
2023/05/16 06:16:11;;;;;;;339.08;198.50;;;;;;;17.85;52.01;92862.63;5017397;28;20033;-90
2023/05/16 06:18:36;;;;;;;350.85;194.68;;;;;;;17.80;52.07;92869.63;5030730;28;20057;-90
2023/05/16 06:21:02;;;;;;;327.50;184.18;;;;;;;17.80;52.09;92869.63;5029936;28;20045;-88
2023/05/16 06:23:28;;;;;;;375.40;219.30;;;;;;;17.78;51.31;92865.94;5049997;28;20041;-88
2023/05/16 06:25:54;;;;;;;349.33;202.48;;;;;;;17.77;51.63;92883.59;5031110;28;20056;-89
2023/05/16 06:28:19;;;;;;;388.27;224.38;;;;;;;17.75;51.34;92886.16;5012078;28;20033;-91
2023/05/16 06:30:46;;;;;;;393.88;241.63;;;;;;;17.75;51.35;92883.41;5032808;28;20044;-91
2023/05/16 06:33:13;;;;;;;433.67;260.27;;;;;;;17.78;51.49;92880.34;5047541;28;20060;-87
2023/05/16 06:35:38;;;;;;;458.70;267.67;;;;;;;17.80;51.66;92886.03;5013270;28;20133;-86
2023/05/16 06:38:04;;;;;;;463.50;263.88;;;;;;;17.81;52.16;92892.97;5034122;28;20045;-88
2023/05/16 06:40:30;;;;;;;514.20;297.08;;;;;;;17.83;51.82;92883.53;5012611;28;20312;-89
2023/05/16 06:42:57;;;;;;;480.55;277.00;;;;;;;17.85;52.04;92894.69;5030469;28;20040;-88
2023/05/16 06:45:23;;;;;;;489.92;290.20;;;;;;;17.79;51.44;92892.75;5009123;28;20057;-91
2023/05/16 06:47:48;;;;;;;494.35;303.67;;;;;;;17.77;52.00;92916.41;5010886;28;20077;-89
2023/05/16 06:50:14;;;;;;;527.75;309.27;;;;;;;17.80;52.01;92907.16;5024003;28;20072;-89
2023/05/16 06:52:40;;;;;;;498.13;292.67;;;;;;;17.82;52.10;92910.13;5013990;28;20029;-90
2023/05/16 06:55:06;;;;;;;514.45;304.35;;;;;;;17.80;52.09;92907.16;5016064;28;20087;-90
2023/05/16 06:57:32;;;;;;;426.92;255.60;;;;;;;17.84;52.01;92909.63;5019775;28;20052;-91
2023/05/16 06:59:57;;;;;;;451.90;261.23;;;;;;;17.86;52.04;92912.56;5020655;28;20052;-88
2023/05/16 07:02:22;;;;;;;485.95;291.52;;;;;;;17.78;51.97;92918.63;5029373;28;20800;-90
2023/05/16 07:04:48;;;;;;;457.70;273.58;;;;;;;17.76;51.91;92915.66;5013703;28;20045;-91
2023/05/16 07:07:14;;;;;;;418.40;247.88;;;;;;;17.78;51.98;92921.34;5028900;28;20092;-93
2023/05/16 07:09:40;;;;;;;440.52;261.83;;;;;;;17.77;51.56;92917.16;5017115;28;20080;-89
2023/05/16 07:12:06;;;;;;;403.95;249.38;;;;;;;17.79;51.74;92917.38;5035592;28;20060;-89
2023/05/16 07:14:32;;;;;;;412.23;244.25;;;;;;;17.83;51.89;92905.41;5018316;28;20049;-89
2023/05/16 07:16:58;;;;;;;399.10;239.80;;;;;;;17.88;52.43;92913.53;5033717;28;20036;-90
2023/05/16 07:19:23;;;;;;;489.20;259.20;;;;;;;17.85;51.67;92914.56;5045606;28;20152;-87
2023/05/16 07:21:50;;;;;;;442.83;250.70;;;;;;;17.90;52.15;92919.22;5065472;28;20032;-88
2023/05/16 07:24:15;;;;;;;422.58;236.65;;;;;;;17.86;52.13;92909.84;5015788;28;20595;-88
2023/05/16 07:26:41;;;;;;;406.45;237.27;;;;;;;17.90;52.63;92904.81;5036751;28;20132;-90
2023/05/16 07:29:11;;;;;;;501.85;288.48;;;;;;;17.85;51.70;92898.16;5014975;28;20037;-88
2023/05/16 07:31:39;;;;;;;503.40;292.40;;;;;;;17.86;51.89;92899.63;5009648;28;20037;-90
2023/05/16 07:34:05;;;;;;;511.23;290.00;;;;;;;17.90;51.92;92891.88;5018071;28;20037;-90
2023/05/16 07:36:32;;;;;;;538.03;317.55;;;;;;;17.90;52.24;92891.13;5016969;28;20047;-90
2023/05/16 07:38:58;;;;;;;556.17;336.00;;;;;;;17.91;51.74;92895.34;5050825;28;20393;-90
2023/05/16 07:41:25;;;;;;;553.03;334.35;;;;;;;17.95;51.72;92896.53;5018080;28;20049;-90
2023/05/16 07:43:50;;;;;;;568.85;341.65;;;;;;;17.92;51.43;92891.34;5033008;28;20614;-91
2023/05/16 07:46:16;;;;;;;474.58;278.05;;;;;;;17.98;52.33;92892.00;5017810;28;20041;-88
2023/05/16 07:48:41;;;;;;;521.58;299.60;;;;;;;17.92;51.93;92881.16;5030509;28;20033;-89
2023/05/16 07:51:07;;;;;;;535.72;329.70;;;;;;;17.96;51.81;92891.81;5031554;28;20103;-87
2023/05/16 07:53:32;;;;;;;491.77;289.63;;;;;;;17.96;52.29;92897.28;5032160;28;20056;-88
2023/05/16 07:55:58;;;;;;;518.95;310.63;;;;;;;17.98;52.10;92892.00;5006766;28;20041;-89
2023/05/16 07:58:23;;;;;;;530.97;320.10;;;;;;;17.95;52.05;92893.06;5036215;28;20055;-89
2023/05/16 08:00:49;;;;;;;490.27;290.58;;;;;;;17.93;51.98;92893.56;5034573;28;20053;-91
2023/05/16 08:03:15;;;;;;;501.13;307.88;;;;;;;17.93;51.88;92904.50;5012961;28;20041;-88
2023/05/16 08:05:40;;;;;;;437.95;265.90;;;;;;;17.97;52.46;92917.88;5028170;28;20425;-89
2023/05/16 08:08:05;;;;;;;514.45;315.83;;;;;;;17.94;51.87;92916.94;5016113;28;20106;-88
2023/05/16 08:10:31;;;;;;;496.63;301.20;;;;;;;18.02;51.81;92923.25;5035100;28;20120;-89
2023/05/16 08:12:56;;;;;;;464.40;279.00;;;;;;;17.99;52.11;92929.03;5018628;28;20041;-90
2023/05/16 08:15:22;;;;;;;481.42;282.98;;;;;;;18.00;52.54;92912.09;5050465;28;20049;-89
2023/05/16 08:17:48;;;;;;;505.00;293.17;;;;;;;17.99;51.42;92929.03;5017593;28;20041;-89
2023/05/16 08:20:14;;;;;;;447.65;232.95;;;;;;;17.91;51.45;92925.44;5019853;28;20047;-87
2023/05/16 08:22:39;;;;;;;427.33;206.57;;;;;;;17.95;51.67;92934.81;5021285;28;20045;-87
2023/05/16 08:25:05;;;;;;;359.92;190.52;;;;;;;17.94;51.95;92936.06;5028461;28;20080;-89
2023/05/16 08:27:31;;;;;;;395.23;215.40;;;;;;;17.94;51.66;92947.00;5014100;28;20029;-87
2023/05/16 08:29:56;;;;;;;373.75;194.30;;;;;;;17.93;51.94;92934.59;5031400;28;20064;-89
2023/05/16 08:32:22;;;;;;;441.73;233.70;;;;;;;17.91;51.94;92931.63;5014589;28;20052;-88
2023/05/16 08:34:47;;;;;;;406.33;224.00;;;;;;;17.92;52.03;92930.38;5016154;28;20037;-86
2023/05/16 08:37:13;;;;;;;386.83;215.23;;;;;;;17.97;51.73;92932.28;5032685;28;20071;-87
2023/05/16 08:39:39;;;;;;;346.52;195.57;;;;;;;17.98;52.02;92922.81;5018025;28;20055;-88
2023/05/16 08:42:04;;;;;;;402.50;225.23;;;;;;;17.93;52.29;92931.13;5012922;28;20050;-86
2023/05/16 08:44:33;;;;;;;388.60;223.13;;;;;;;17.94;51.75;92933.34;5014592;28;20675;-89
2023/05/16 08:47:00;;;;;;;373.92;211.07;;;;;;;17.93;52.37;92934.59;5048320;28;21180;-86
2023/05/16 08:49:26;;;;;;;371.02;216.65;;;;;;;17.93;52.25;92928.38;5032220;28;20045;-88
2023/05/16 08:51:52;;;;;;;362.35;211.60;;;;;;;18.01;52.40;92940.19;5034706;28;20079;-88
2023/05/16 08:54:18;;;;;;;354.33;205.13;;;;;;;17.96;52.27;92939.03;5055607;28;20029;-87
2023/05/16 08:56:44;;;;;;;377.73;224.02;;;;;;;17.94;52.18;92935.34;5009281;28;20122;-88
2023/05/16 08:59:10;;;;;;;391.60;224.02;;;;;;;17.96;51.93;92925.34;5026190;28;20467;-88
2023/05/16 09:01:36;;;;;;;359.77;206.85;;;;;;;17.99;52.29;92932.50;5018754;28;20041;-88
2023/05/16 09:04:02;;;;;;;332.08;193.60;;;;;;;17.93;52.35;92929.13;5015483;28;20044;-90
2023/05/16 09:06:29;;;;;;;339.13;195.65;;;;;;;17.97;52.55;92915.16;5013823;28;20123;-91
2023/05/16 09:08:55;;;;;;;315.27;186.00;;;;;;;17.95;52.33;92906.72;5049672;28;20041;-89
2023/05/16 09:11:21;;;;;;;328.15;194.60;;;;;;;18.04;52.74;92915.28;5033297;28;20048;-89
2023/05/16 09:13:47;;;;;;;312.85;182.50;;;;;;;17.98;52.63;92909.13;5048846;28;20127;-88
2023/05/16 09:16:13;;;;;;;333.35;197.43;;;;;;;17.99;52.77;92891.47;5034583;28;20032;-89
2023/05/16 09:18:39;;;;;;;273.00;155.40;;;;;;;17.98;52.41;92894.72;5051007;28;20041;-87
2023/05/16 09:21:06;;;;;;;283.48;170.15;;;;;;;17.98;52.36;92883.78;5022980;28;20061;-87
2023/05/16 09:23:32;;;;;;;288.15;169.93;;;;;;;17.96;52.39;92884.34;5024350;28;20053;-89
2023/05/16 09:25:58;;;;;;;293.70;171.05;;;;;;;18.01;52.16;92888.22;5045415;28;21802;-88
2023/05/16 09:28:24;;;;;;;323.30;184.20;;;;;;;17.97;51.99;92885.06;5028924;28;20072;-87
2023/05/16 09:30:51;;;;;;;243.77;143.25;;;;;;;18.00;52.48;92887.47;5030090;28;20114;-88
2023/05/16 09:33:16;;;;;;;309.15;189.63;;;;;;;17.99;52.14;92875.06;5026573;28;20644;-87
2023/05/16 09:35:41;;;;;;;285.02;174.52;;;;;;;18.00;52.42;92871.06;5023950;28;20156;-90
2023/05/16 09:38:14;;;;;;;287.40;170.00;;;;;;;17.99;52.49;92864.13;5031024;28;20083;-89
2023/05/16 09:40:40;;;;;;;371.17;188.93;;;;;;;18.01;52.43;92867.09;5030619;28;20555;-88
2023/05/16 09:43:07;;;;;;;413.20;220.30;;;;;;;17.97;52.31;92855.00;5023857;28;20052;-87
2023/05/16 09:45:33;;;;;;;379.83;207.85;;;;;;;18.11;51.97;92851.75;5012151;28;20044;-88
2023/05/16 09:48:08;;;;;;;289.73;153.48;;;;;;;17.96;51.64;92854.25;5029258;28;20041;-90
2023/05/16 09:50:34;;;;;;;214.98;108.63;;;;;;;17.97;52.13;92852.97;5031294;28;20044;-88
2023/05/16 09:53:01;;;;;;;238.50;118.10;;;;;;;17.96;52.31;92854.25;5033386;28;20041;-87
2023/05/16 09:55:26;;;;;;;256.70;131.73;;;;;;;17.93;52.06;92841.63;5027871;28;20036;-90
2023/05/16 09:57:52;;;;;;;274.85;138.48;;;;;;;17.92;52.09;92848.34;5028658;28;20036;-85
2023/05/16 10:00:17;;;;;;;336.77;145.60;;;;;;;17.95;51.97;92854.78;5015804;28;20286;-86
2023/05/16 10:02:43;;;;;;;243.57;118.03;;;;;;;17.99;52.34;92855.91;5027416;28;20047;-89
2023/05/16 10:05:08;;;;;;;261.10;139.25;;;;;;;17.98;52.75;92848.97;5024271;28;20061;-85
2023/05/16 10:07:34;;;;;;;281.50;153.43;;;;;;;17.99;52.57;92844.25;5005998;28;20045;-89
2023/05/16 10:10:03;;;;;;;313.30;167.70;;;;;;;17.97;51.93;92852.25;5029101;28;20045;-86
2023/05/16 10:12:29;;;;;;;308.42;168.02;;;;;;;17.98;51.99;92861.91;5028707;28;20787;-87
2023/05/16 10:14:55;;;;;;;300.98;162.93;;;;;;;17.98;52.64;92857.19;5027245;28;20350;-87
2023/05/16 10:17:20;;;;;;;293.58;172.02;;;;;;;17.96;52.34;92858.97;5012943;28;20040;-85
2023/05/16 10:19:46;;;;;;;286.33;165.05;;;;;;;17.98;52.14;92870.84;5012689;28;20045;-88
2023/05/16 10:22:11;;;;;;;259.13;153.85;;;;;;;18.01;52.43;92886.22;5027353;28;20064;-89
2023/05/16 10:24:46;;;;;;;286.00;165.00;;;;;;;18.02;52.47;92886.97;5024769;28;20051;-89
2023/05/16 10:27:11;;;;;;;267.65;153.90;;;;;;;18.00;52.30;92905.88;5012162;28;20132;-87
2023/05/16 10:29:37;;;;;;;253.73;153.27;;;;;;;17.97;52.30;92913.13;5008919;28;20103;-88
2023/05/16 10:32:02;;;;;;;229.55;136.73;;;;;;;17.97;52.88;92926.09;5014126;28;20511;-89
2023/05/16 10:34:28;;;;;;;235.35;136.48;;;;;;;18.04;52.44;92918.00;5012119;28;20034;-86
2023/05/16 10:36:53;;;;;;;245.25;137.68;;;;;;;18.04;52.05;92914.53;5031687;28;20111;-88
2023/05/16 10:39:19;;;;;;;213.98;128.18;;;;;;;17.99;52.41;92918.81;5079538;28;20045;-86
2023/05/16 10:41:44;;;;;;;211.85;125.22;;;;;;;18.07;52.63;92919.72;5013421;28;20041;-87
2023/05/16 10:44:14;;;;;;;212.63;121.50;;;;;;;18.05;52.30;92916.00;5031474;28;20400;-87
2023/05/16 10:46:40;;;;;;;190.77;115.82;;;;;;;18.06;52.47;92907.28;5050789;28;20049;-87
2023/05/16 10:49:25;;;;;;;205.00;121.50;;;;;;;18.00;52.44;92894.94;5017926;28;20047;-89
2023/05/16 10:52:09;;;;;;;195.52;118.95;;;;;;;17.96;52.66;92900.00;5034256;28;20090;-84
2023/05/16 10:54:42;;;;;;;232.00;132.75;;;;;;;17.99;52.25;92896.22;5014003;28;20045;-87
2023/05/16 10:57:18;;;;;;;220.77;128.90;;;;;;;18.01;52.29;92885.50;5018650;28;20076;-86
2023/05/16 10:59:44;;;;;;;231.77;130.50;;;;;;;17.98;52.22;92879.06;4998744;28;20425;-87
2023/05/16 11:02:23;;;;;;;234.48;134.68;;;;;;;18.02;52.29;92882.22;4982119;28;20095;-87
2023/05/16 11:04:50;;;;;;;245.63;143.35;;;;;;;18.06;52.65;92892.88;4999206;28;20045;-89